Terminal Aerodrome Forecast
Issued by NWS

Home | Current Version | Previous Version | Text Only | Print | Product List | Glossary On
Versions: 1 2 3 4 5 6 7 8 9 10 11 12 13
000
FTUS43 KOAX 052347
TAFCDR
TAF
KCDR 052347Z 0600/0624 01016G25KT P6SM -SHRA VCTS SCT050CB BKN100
     FM060200 02020G30KT 4SM -TSRA BKN015 OVC050CB
     FM060900 35013KT 3SM -RA VCTS SCT015 OVC025CB
     FM061400 36007KT P6SM VCSH BKN030 OVC050
     FM061800 01006KT P6SM BKN050=

USA.gov is the U.S. government's official web portal to all federal, state and local government web resources and services.